createdAt,value
2022-11-28T00:00:44.714Z,16.48
2022-11-28T00:03:12.403Z,16.77
2022-11-28T00:05:45.653Z,26.17
2022-11-28T00:08:17.107Z,15.45
2022-11-28T00:10:44.432Z,21.25
2022-11-28T00:13:11.669Z,18.38
2022-11-28T00:15:41.958Z,13.55
2022-11-28T00:18:10.783Z,14.38
2022-11-28T00:20:39.532Z,15.65
2022-11-28T00:23:07.238Z,17.02
2022-11-28T00:25:34.685Z,15.00
2022-11-28T00:28:03.199Z,16.40
2022-11-28T00:30:31.999Z,20.88
2022-11-28T00:33:00.301Z,21.40
2022-11-28T00:35:27.594Z,15.25
2022-11-28T00:37:54.823Z,15.35
2022-11-28T00:40:22.714Z,12.55
2022-11-28T00:42:50.222Z,12.68
2022-11-28T00:45:17.828Z,16.15
2022-11-28T00:47:47.210Z,11.95
2022-11-28T00:50:14.703Z,16.40
2022-11-28T00:52:42.413Z,16.70
2022-11-28T00:55:18.665Z,19.88
2022-11-28T00:57:47.613Z,21.95
2022-11-28T01:00:18.013Z,17.40
2022-11-28T01:02:45.232Z,18.50
2022-11-28T01:05:12.483Z,24.52
2022-11-28T01:07:43.285Z,14.68
2022-11-28T01:10:15.798Z,17.38
2022-11-28T01:12:43.029Z,25.63
2022-11-28T01:15:17.721Z,19.10
2022-11-28T01:17:45.029Z,17.55
2022-11-28T01:20:13.221Z,26.30
2022-11-28T01:22:40.635Z,19.25
2022-11-28T01:25:10.699Z,26.35
2022-11-28T01:27:40.642Z,14.00
2022-11-28T01:30:09.936Z,24.13
2022-11-28T01:32:38.786Z,16.63
2022-11-28T01:35:06.370Z,14.55
2022-11-28T01:37:34.098Z,17.52
2022-11-28T01:40:01.320Z,14.25
2022-11-28T01:42:28.493Z,15.00
2022-11-28T01:44:56.153Z,18.90
2022-11-28T01:47:26.690Z,15.60
2022-11-28T01:49:55.592Z,13.30
2022-11-28T01:52:24.157Z,15.05
2022-11-28T01:54:53.338Z,13.98
2022-11-28T01:57:25.193Z,23.35
2022-11-28T02:00:06.165Z,15.85
2022-11-28T02:02:38.474Z,15.43
2022-11-28T02:05:06.578Z,15.85
2022-11-28T02:07:34.559Z,19.05
2022-11-28T02:10:02.915Z,16.98
2022-11-28T02:12:38.173Z,16.98
2022-11-28T02:15:05.490Z,16.80
2022-11-28T02:17:42.599Z,22.30
2022-11-28T02:20:26.216Z,18.88
2022-11-28T02:23:00.080Z,14.85
2022-11-28T02:25:39.812Z,17.10
2022-11-28T02:28:41.806Z,30.30
2022-11-28T02:31:28.322Z,16.88
2022-11-28T02:34:00.671Z,13.70
2022-11-28T02:36:43.244Z,17.17
2022-11-28T02:39:46.212Z,16.60
2022-11-28T02:42:20.958Z,10.07
2022-11-28T02:44:57.122Z,15.52
2022-11-28T02:47:27.139Z,18.67
2022-11-28T02:50:06.524Z,10.82
2022-11-28T02:52:46.253Z,12.05
2022-11-28T02:55:17.017Z,13.68
2022-11-28T02:57:52.285Z,14.07
2022-11-28T03:00:31.352Z,17.05
2022-11-28T03:02:58.933Z,14.50
2022-11-28T03:05:30.932Z,16.45
2022-11-28T03:08:12.328Z,13.23
2022-11-28T03:10:48.353Z,14.48
2022-11-28T03:13:18.565Z,10.57
2022-11-28T03:15:55.180Z,11.63
2022-11-28T03:18:51.927Z,13.52
2022-11-28T03:21:27.859Z,11.00
2022-11-28T03:23:59.058Z,11.75
2022-11-28T03:26:46.490Z,19.33
2022-11-28T03:29:17.319Z,10.18
2022-11-28T03:31:49.095Z,12.98
2022-11-28T03:34:21.823Z,9.68
2022-11-28T03:36:53.172Z,15.03
2022-11-28T03:39:23.130Z,12.93
2022-11-28T03:42:07.404Z,10.73
2022-11-28T03:44:41.771Z,10.63
2022-11-28T03:47:12.172Z,10.77
2022-11-28T03:49:41.779Z,14.68
2022-11-28T03:52:13.450Z,14.25
2022-11-28T03:54:54.084Z,10.68
2022-11-28T03:57:24.603Z,11.00
2022-11-28T03:59:53.950Z,16.02
2022-11-28T04:02:27.413Z,13.90
2022-11-28T04:07:40.952Z,16.42
2022-11-28T04:10:26.648Z,14.02
2022-11-28T04:12:54.393Z,13.90
2022-11-28T04:15:27.993Z,15.95
2022-11-28T04:17:58.807Z,13.98
2022-11-28T04:20:32.252Z,15.80
2022-11-28T04:23:03.474Z,17.77
2022-11-28T04:25:36.339Z,13.52
2022-11-28T04:28:06.209Z,15.93
2022-11-28T04:30:36.850Z,16.73
2022-11-28T04:33:08.592Z,15.57
2022-11-28T04:35:40.767Z,16.77
2022-11-28T04:38:13.003Z,12.45
2022-11-28T04:40:55.208Z,17.58
2022-11-28T04:43:25.326Z,20.60
2022-11-28T04:45:56.184Z,14.52
2022-11-28T04:48:31.193Z,17.27
2022-11-28T04:51:22.003Z,13.18
2022-11-28T04:54:03.994Z,13.35
2022-11-28T04:56:54.648Z,16.77
2022-11-28T04:59:26.996Z,15.30
2022-11-28T05:01:55.235Z,13.07
2022-11-28T05:04:22.480Z,15.50
2022-11-28T05:06:55.071Z,17.33
2022-11-28T05:09:25.915Z,13.03
2022-11-28T05:11:53.473Z,16.35
2022-11-28T05:14:20.848Z,12.93
2022-11-28T05:16:48.271Z,13.88
2022-11-28T05:19:19.147Z,18.60
2022-11-28T05:21:48.607Z,12.73
2022-11-28T05:24:17.738Z,15.80
2022-11-28T05:26:45.401Z,14.43
2022-11-28T05:29:13.260Z,13.18
2022-11-28T05:31:40.525Z,13.10
2022-11-28T05:34:10.094Z,15.77
2022-11-28T05:36:39.493Z,12.07
2022-11-28T05:39:07.071Z,18.75
2022-11-28T05:41:37.313Z,11.88
2022-11-28T05:44:04.736Z,10.95
2022-11-28T05:46:33.302Z,17.55
2022-11-28T05:49:01.828Z,14.98
2022-11-28T05:51:29.096Z,15.48
2022-11-28T05:53:56.632Z,15.48
2022-11-28T05:56:24.259Z,11.88
2022-11-28T05:58:51.840Z,14.20
2022-11-28T06:04:48.185Z,13.70
2022-11-28T06:07:20.325Z,11.25
2022-11-28T06:09:47.835Z,15.50
2022-11-28T06:12:17.740Z,15.00
2022-11-28T06:14:45.777Z,13.95
2022-11-28T06:17:12.922Z,17.50
2022-11-28T06:19:40.789Z,12.25
2022-11-28T06:22:10.809Z,18.15
2022-11-28T06:24:40.193Z,15.18
2022-11-28T06:27:07.427Z,12.10
2022-11-28T06:29:35.075Z,14.82
2022-11-28T06:37:18.092Z,12.57
2022-11-28T06:42:27.793Z,13.70
2022-11-28T06:44:57.230Z,12.85
2022-11-28T06:47:27.702Z,17.13
2022-11-28T06:49:57.831Z,18.55
2022-11-28T06:52:31.898Z,20.13
2022-11-28T06:54:59.268Z,19.05
2022-11-28T06:57:28.098Z,16.23
2022-11-28T07:00:04.351Z,13.43
2022-11-28T07:02:40.366Z,17.30
2022-11-28T07:05:28.260Z,16.30
2022-11-28T07:07:58.961Z,18.42
2022-11-28T07:10:30.077Z,18.40
2022-11-28T07:13:10.166Z,20.90
2022-11-28T07:15:48.039Z,31.90
2022-11-28T07:18:20.935Z,15.38
2022-11-28T07:20:49.353Z,20.75
2022-11-28T07:23:22.817Z,19.92
2022-11-28T07:26:00.845Z,20.50
2022-11-28T07:28:31.259Z,20.77
2022-11-28T07:31:07.523Z,22.55
2022-11-28T07:33:39.780Z,21.40
2022-11-28T07:36:58.229Z,32.25
2022-11-28T07:39:17.932Z,28.58
2022-11-28T07:41:46.080Z,23.50
2022-11-28T07:44:20.694Z,32.13
2022-11-28T07:46:48.538Z,26.95
2022-11-28T07:49:17.506Z,46.42
2022-11-28T07:51:46.757Z,45.33
2022-11-28T07:54:13.996Z,23.17
2022-11-28T07:57:12.042Z,30.15
2022-11-28T07:59:51.675Z,33.50
2022-11-28T08:03:00.250Z,28.88
2022-11-28T08:05:28.107Z,29.38
2022-11-28T08:07:58.365Z,24.40
2022-11-28T08:10:29.204Z,45.55
2022-11-28T08:12:56.706Z,36.53
2022-11-28T08:15:31.917Z,27.77
2022-11-28T08:18:09.717Z,40.58
2022-11-28T08:20:43.179Z,26.58
2022-11-28T08:26:03.108Z,36.67
2022-11-28T08:28:34.062Z,35.10
2022-11-28T08:31:04.351Z,55.15
2022-11-28T08:33:35.256Z,31.70
2022-11-28T08:36:13.057Z,40.03
2022-11-28T08:39:03.270Z,39.47
2022-11-28T08:41:42.188Z,33.80
2022-11-28T08:44:18.295Z,22.42
2022-11-28T08:46:51.384Z,26.42
2022-11-28T08:49:22.419Z,27.83
2022-11-28T08:51:52.260Z,39.58
2022-11-28T08:54:21.374Z,29.10
2022-11-28T08:56:49.559Z,28.38
2022-11-28T08:59:16.917Z,23.30
2022-11-28T09:01:44.213Z,35.92
2022-11-28T09:04:15.436Z,22.92
2022-11-28T09:06:46.836Z,40.40
2022-11-28T09:09:17.075Z,16.08
2022-11-28T09:11:49.099Z,38.22
2022-11-28T09:14:25.323Z,33.55
2022-11-28T09:17:00.562Z,36.85
2022-11-28T09:19:27.901Z,43.97
2022-11-28T09:22:03.302Z,33.15
2022-11-28T09:24:36.048Z,56.55
2022-11-28T09:27:06.417Z,44.50
2022-11-28T09:29:33.864Z,60.38
2022-11-28T09:32:01.520Z,44.22
2022-11-28T09:34:37.245Z,46.30
2022-11-28T09:37:05.194Z,49.08
2022-11-28T09:39:50.165Z,49.47
2022-11-28T09:42:33.806Z,58.97
2022-11-28T09:45:10.406Z,48.47
2022-11-28T09:47:45.423Z,62.45
2022-11-28T09:50:21.163Z,64.05
2022-11-28T09:52:59.386Z,57.65
2022-11-28T09:55:37.302Z,64.30
2022-11-28T09:58:29.120Z,102.60
2022-11-28T10:01:12.770Z,86.13
2022-11-28T10:03:44.236Z,96.85
2022-11-28T10:06:20.785Z,100.47
2022-11-28T10:09:06.982Z,117.13
2022-11-28T10:11:56.251Z,99.25
2022-11-28T10:14:42.736Z,97.65
2022-11-28T10:17:29.011Z,72.70
2022-11-28T10:20:06.620Z,137.48
2022-11-28T10:22:47.830Z,108.18
2022-11-28T10:25:20.026Z,81.03
2022-11-28T10:27:48.481Z,88.45
2022-11-28T10:30:25.631Z,92.85
2022-11-28T10:33:01.219Z,96.57
2022-11-28T10:35:40.767Z,110.88
2022-11-28T10:38:15.203Z,114.25
2022-11-28T10:40:42.744Z,118.18
2022-11-28T10:43:29.407Z,83.80
2022-11-28T10:46:19.576Z,131.55
2022-11-28T10:48:53.108Z,108.28
2022-11-28T10:54:20.837Z,114.05
2022-11-28T10:56:59.892Z,98.15
2022-11-28T10:59:50.856Z,109.32
2022-11-28T11:02:22.895Z,99.57
2022-11-28T11:04:54.697Z,92.05
2022-11-28T11:07:30.744Z,100.53
2022-11-28T11:10:16.085Z,98.03
2022-11-28T11:12:46.193Z,87.75
2022-11-28T11:15:36.293Z,99.45
2022-11-28T11:18:28.159Z,116.07
2022-11-28T11:21:22.131Z,119.50
2022-11-28T11:26:28.510Z,69.32
2022-11-28T11:28:57.214Z,79.10
2022-11-28T11:31:24.783Z,70.35
2022-11-28T11:34:12.739Z,75.65
2022-11-28T11:36:46.777Z,79.57
2022-11-28T11:39:13.963Z,70.50
2022-11-28T11:41:42.781Z,54.10
2022-11-28T11:44:37.367Z,62.65
2022-11-28T11:47:10.557Z,56.30
2022-11-28T11:49:42.539Z,94.32
2022-11-28T11:52:13.437Z,65.70
2022-11-28T11:54:54.904Z,103.93
2022-11-28T11:57:33.120Z,85.75
2022-11-28T12:00:06.356Z,77.97
2022-11-28T12:02:41.813Z,60.83
2022-11-28T12:05:19.106Z,61.13
2022-11-28T12:07:58.229Z,52.67
2022-11-28T12:10:27.439Z,84.05
2022-11-28T12:12:54.745Z,69.38
2022-11-28T12:15:37.334Z,64.72
2022-11-28T12:18:12.560Z,66.07
2022-11-28T12:20:46.843Z,64.15
2022-11-28T12:23:25.838Z,71.68
2022-11-28T12:25:56.932Z,66.50
2022-11-28T12:28:43.135Z,72.00
2022-11-28T12:31:27.561Z,67.65
2022-11-28T12:34:07.378Z,51.35
2022-11-28T12:36:44.891Z,67.47
2022-11-28T12:39:13.191Z,76.70
2022-11-28T12:41:44.864Z,68.40
2022-11-28T12:44:28.998Z,58.00
2022-11-28T12:47:20.976Z,56.22
2022-11-28T12:50:10.530Z,108.93
2022-11-28T12:52:47.380Z,87.95
2022-11-28T12:55:19.887Z,84.63
2022-11-28T12:57:55.284Z,104.22
2022-11-28T13:00:27.077Z,68.30
2022-11-28T13:03:23.455Z,69.45
2022-11-28T13:05:53.619Z,68.82
2022-11-28T13:08:48.774Z,90.65
2022-11-28T13:11:44.838Z,75.82
2022-11-28T13:14:30.902Z,75.95
2022-11-28T13:17:13.131Z,70.88
2022-11-28T13:20:06.193Z,56.30
2022-11-28T13:22:45.932Z,63.58
2022-11-28T13:25:36.557Z,49.17
2022-11-28T13:28:07.078Z,49.75
2022-11-28T13:31:20.053Z,51.80
2022-11-28T13:33:52.070Z,59.03
2022-11-28T13:39:13.491Z,90.07
2022-11-28T13:42:36.558Z,94.25
2022-11-28T13:44:50.016Z,86.55
2022-11-28T13:47:30.846Z,102.85
2022-11-28T13:50:19.277Z,70.60
2022-11-28T13:53:27.120Z,85.95
2022-11-28T13:56:03.568Z,103.32
2022-11-28T13:58:33.892Z,67.00
2022-11-28T14:01:07.603Z,91.88
2022-11-28T14:03:38.942Z,96.90
2022-11-28T14:09:15.698Z,88.30
2022-11-28T14:12:07.824Z,88.43
2022-11-28T14:14:58.266Z,75.13
2022-11-28T14:17:40.289Z,75.90
2022-11-28T14:20:17.478Z,56.83
2022-11-28T14:22:55.270Z,61.50
2022-11-28T14:25:45.595Z,68.53
2022-11-28T14:28:51.007Z,62.53
2022-11-28T14:32:00.386Z,65.80
2022-11-28T14:35:05.480Z,95.93
2022-11-28T14:37:34.899Z,123.24
2022-11-28T14:40:03.473Z,103.07
2022-11-28T14:42:59.488Z,93.93
2022-11-28T14:45:40.673Z,103.05
2022-11-28T14:48:23.792Z,72.50
2022-11-28T14:51:11.637Z,104.88
2022-11-28T14:53:43.856Z,67.72
2022-11-28T14:56:13.395Z,76.70
2022-11-28T14:58:49.068Z,70.78
2022-11-28T15:01:35.092Z,78.57
2022-11-28T15:04:05.605Z,65.03
2022-11-28T15:06:51.801Z,68.57
2022-11-28T15:09:46.717Z,116.25
2022-11-28T15:12:48.959Z,69.15
2022-11-28T15:15:43.899Z,90.45
2022-11-28T15:18:21.751Z,104.63
2022-11-28T15:20:54.023Z,153.65
2022-11-28T15:23:26.814Z,91.55
2022-11-28T15:26:01.939Z,80.18
2022-11-28T15:28:34.944Z,178.05
2022-11-28T15:31:10.297Z,80.37
2022-11-28T15:33:55.752Z,122.47
2022-11-28T15:36:58.068Z,58.38
2022-11-28T15:42:43.740Z,177.00
2022-11-28T15:45:21.925Z,78.25
2022-11-28T15:47:50.054Z,71.95
2022-11-28T15:50:19.610Z,68.07
2022-11-28T15:53:16.481Z,65.88
2022-11-28T15:55:50.686Z,102.88
2022-11-28T15:58:20.706Z,166.35
2022-11-28T16:00:58.791Z,79.95
2022-11-28T16:03:32.016Z,133.00
2022-11-28T16:08:40.224Z,69.18
2022-11-28T16:11:13.532Z,104.78
2022-11-28T16:13:41.716Z,112.22
2022-11-28T16:16:11.751Z,98.93
2022-11-28T16:18:42.732Z,110.40
2022-11-28T16:21:53.421Z,275.63
2022-11-28T16:24:48.529Z,87.40
2022-11-28T16:27:34.718Z,61.17
2022-11-28T16:30:02.743Z,84.13
2022-11-28T16:32:43.918Z,88.15
2022-11-28T16:35:13.045Z,71.07
2022-11-28T16:37:46.575Z,82.07
2022-11-28T16:40:18.131Z,125.38
2022-11-28T16:42:55.316Z,186.82
2022-11-28T16:45:27.906Z,203.82
2022-11-28T16:48:13.931Z,185.23
2022-11-28T16:50:59.755Z,197.70
2022-11-28T16:53:59.311Z,130.23
2022-11-28T16:56:32.980Z,71.47
2022-11-28T16:59:20.402Z,155.10
2022-11-28T17:01:52.549Z,139.82
2022-11-28T17:04:23.406Z,180.38
2022-11-28T17:06:51.713Z,140.48
2022-11-28T17:09:19.758Z,137.00
2022-11-28T17:12:07.715Z,112.53
2022-11-28T17:14:42.390Z,156.63
2022-11-28T17:17:18.291Z,140.52
2022-11-28T17:19:47.061Z,149.07
2022-11-28T17:22:19.882Z,260.45
2022-11-28T17:24:47.874Z,186.93
2022-11-28T17:27:16.120Z,220.20
2022-11-28T17:29:44.613Z,79.75
2022-11-28T17:32:18.230Z,193.18
2022-11-28T17:37:16.689Z,109.68
2022-11-28T17:40:05.864Z,182.88
2022-11-28T17:42:33.263Z,104.82
2022-11-28T17:45:00.805Z,145.07
2022-11-28T17:47:31.586Z,165.65
2022-11-28T17:49:59.553Z,189.18
2022-11-28T17:52:32.391Z,116.47
2022-11-28T17:55:07.135Z,292.80
2022-11-28T17:57:47.404Z,297.85
2022-11-28T18:00:29.368Z,107.13
2022-11-28T18:02:57.343Z,264.58
2022-11-28T18:05:25.179Z,128.60
2022-11-28T18:07:59.576Z,125.20
2022-11-28T18:10:27.192Z,349.88
2022-11-28T18:13:02.695Z,295.33
2022-11-28T18:15:42.914Z,177.77
2022-11-28T18:18:27.248Z,87.72
2022-11-28T18:20:57.775Z,135.80
2022-11-28T18:23:26.634Z,108.95
2022-11-28T18:25:56.834Z,213.30
2022-11-28T18:28:37.943Z,220.52
2022-11-28T18:31:24.912Z,160.70
2022-11-28T18:33:56.152Z,168.32
2022-11-28T18:36:36.725Z,136.05
2022-11-28T18:39:13.041Z,262.52
2022-11-28T18:41:41.319Z,143.32
2022-11-28T18:44:16.432Z,156.48
2022-11-28T18:46:49.589Z,140.60
2022-11-28T18:49:19.238Z,312.13
2022-11-28T18:54:42.112Z,429.63
2022-11-28T19:02:51.625Z,108.25
2022-11-28T19:05:26.278Z,115.07
2022-11-28T19:07:58.284Z,136.02
2022-11-28T19:10:28.694Z,139.38
2022-11-28T19:12:59.433Z,107.40
2022-11-28T19:15:28.670Z,145.75
2022-11-28T19:17:59.072Z,142.20
2022-11-28T19:20:29.208Z,145.32
2022-11-28T19:22:59.641Z,135.98
2022-11-28T19:25:34.970Z,97.80
2022-11-28T19:28:02.538Z,141.32
2022-11-28T19:30:30.592Z,149.50
2022-11-28T19:33:01.192Z,173.25
2022-11-28T19:35:32.133Z,152.55
2022-11-28T19:38:01.548Z,88.88
2022-11-28T19:40:31.516Z,111.80
2022-11-28T19:43:05.713Z,140.57
2022-11-28T19:45:35.721Z,98.75
2022-11-28T19:48:04.169Z,124.55
2022-11-28T19:50:31.801Z,129.38
2022-11-28T19:53:02.802Z,150.35
2022-11-28T19:55:33.132Z,114.30
2022-11-28T19:58:01.605Z,118.70
2022-11-28T20:00:29.467Z,118.82
2022-11-28T20:02:57.048Z,114.10
2022-11-28T20:05:24.598Z,139.23
2022-11-28T20:07:55.594Z,169.35
2022-11-28T20:10:33.267Z,106.47
2022-11-28T20:13:01.015Z,123.80
2022-11-28T20:15:29.329Z,166.63
2022-11-28T20:17:59.302Z,146.25
2022-11-28T20:20:26.936Z,108.70
2022-11-28T20:22:57.590Z,162.82
2022-11-28T20:25:24.828Z,162.15
2022-11-28T20:27:52.394Z,276.10
2022-11-28T20:30:20.214Z,314.15
2022-11-28T20:32:52.150Z,170.77
2022-11-28T20:35:19.821Z,154.02
2022-11-28T20:37:48.038Z,238.20
2022-11-28T20:40:22.898Z,165.40
2022-11-28T20:42:51.662Z,116.30
2022-11-28T20:45:19.514Z,104.47
2022-11-28T20:47:50.221Z,115.28
2022-11-28T20:50:18.924Z,138.80
2022-11-28T20:52:48.362Z,235.88
2022-11-28T20:55:18.568Z,117.82
2022-11-28T20:57:46.153Z,111.97
2022-11-28T21:00:16.653Z,151.30
2022-11-28T21:02:45.998Z,146.27
2022-11-28T21:05:19.266Z,115.85
2022-11-28T21:07:48.006Z,107.60
2022-11-28T21:10:18.866Z,140.45
2022-11-28T21:12:51.528Z,140.93
2022-11-28T21:15:21.414Z,151.67
2022-11-28T21:17:50.195Z,160.40
2022-11-28T21:21:11.890Z,165.52
2022-11-28T21:23:39.801Z,177.35
2022-11-28T21:26:11.331Z,127.68
2022-11-28T21:28:39.608Z,162.35
2022-11-28T21:31:20.521Z,145.05
2022-11-28T21:33:58.996Z,219.77
2022-11-28T21:36:27.986Z,179.93
2022-11-28T21:38:58.720Z,199.43
2022-11-28T21:41:32.295Z,287.73
2022-11-28T21:44:00.303Z,175.75
2022-11-28T21:46:29.302Z,196.25
2022-11-28T21:48:58.614Z,167.88
2022-11-28T21:51:28.638Z,161.18
2022-11-28T21:53:57.806Z,264.30
2022-11-28T21:56:25.699Z,156.77
2022-11-28T21:58:53.157Z,178.63
2022-11-28T22:01:23.062Z,208.57
2022-11-28T22:03:50.592Z,167.10
2022-11-28T22:06:21.117Z,227.18
2022-11-28T22:08:51.788Z,167.30
2022-11-28T22:11:20.127Z,214.85
2022-11-28T22:13:48.180Z,214.88
2022-11-28T22:16:17.147Z,213.95
2022-11-28T22:18:45.315Z,185.43
2022-11-28T22:24:00.769Z,243.57
2022-11-28T22:26:28.248Z,168.88
2022-11-28T22:28:55.437Z,236.65
2022-11-28T22:31:23.990Z,240.48
2022-11-28T22:33:52.022Z,201.10
2022-11-28T22:36:20.530Z,167.13
2022-11-28T22:38:48.254Z,210.55
2022-11-28T22:41:27.869Z,243.52
2022-11-28T22:43:56.679Z,238.60
2022-11-28T22:46:24.469Z,293.63
2022-11-28T22:48:52.054Z,195.50
2022-11-28T22:51:21.662Z,292.65
2022-11-28T22:53:49.011Z,347.90
2022-11-28T22:56:19.260Z,272.42
2022-11-28T22:58:46.986Z,212.30
2022-11-28T23:01:17.176Z,304.10
2022-11-28T23:03:45.391Z,266.73
2022-11-28T23:06:17.210Z,305.50
2022-11-28T23:08:45.180Z,355.42
2022-11-28T23:11:15.852Z,181.05
2022-11-28T23:13:43.750Z,154.77
2022-11-28T23:16:16.156Z,258.70
2022-11-28T23:18:44.436Z,174.40
2022-11-28T23:21:11.911Z,223.05
2022-11-28T23:23:39.877Z,358.75
2022-11-28T23:26:21.832Z,152.40
2022-11-28T23:28:49.358Z,168.43
2022-11-28T23:31:21.214Z,174.07
2022-11-28T23:33:48.878Z,146.65
2022-11-28T23:36:19.279Z,159.55
2022-11-28T23:38:49.609Z,189.77
2022-11-28T23:41:17.577Z,159.60
2022-11-28T23:43:45.225Z,216.38
2022-11-28T23:46:13.577Z,207.13
2022-11-28T23:48:40.992Z,355.40
2022-11-28T23:51:09.495Z,430.48
2022-11-28T23:53:36.998Z,218.52
2022-11-28T23:56:05.009Z,341.15
2022-11-28T23:58:32.352Z,340.50
